sensor_id;sensor_type;location;lat;lon;timestamp;temperature;humidity
45619;DHT22;31343;47.520;19.144;2023-08-08T00:01:06;15.20;99.90
45619;DHT22;31343;47.520;19.144;2023-08-08T00:03:32;15.10;99.90
45619;DHT22;31343;47.520;19.144;2023-08-08T00:05:58;15.10;99.90
45619;DHT22;31343;47.520;19.144;2023-08-08T00:08:24;15.10;99.90
45619;DHT22;31343;47.520;19.144;2023-08-08T00:10:49;15.10;99.90
45619;DHT22;31343;47.520;19.144;2023-08-08T00:13:15;15.10;99.90
45619;DHT22;31343;47.520;19.144;2023-08-08T00:15:41;15.10;99.90
45619;DHT22;31343;47.520;19.144;2023-08-08T00:18:08;15.10;99.90
45619;DHT22;31343;47.520;19.144;2023-08-08T00:20:34;15.10;99.90
45619;DHT22;31343;47.520;19.144;2023-08-08T00:23:00;15.10;99.90
45619;DHT22;31343;47.520;19.144;2023-08-08T00:25:25;15.10;99.90
45619;DHT22;31343;47.520;19.144;2023-08-08T00:27:51;15.00;99.90
45619;DHT22;31343;47.520;19.144;2023-08-08T00:30:17;15.10;99.90
45619;DHT22;31343;47.520;19.144;2023-08-08T00:32:43;15.10;99.90
45619;DHT22;31343;47.520;19.144;2023-08-08T00:35:09;15.10;99.90
45619;DHT22;31343;47.520;19.144;2023-08-08T00:37:34;15.10;99.90
45619;DHT22;31343;47.520;19.144;2023-08-08T00:40:00;15.00;99.90
45619;DHT22;31343;47.520;19.144;2023-08-08T00:42:26;15.10;99.90
45619;DHT22;31343;47.520;19.144;2023-08-08T00:44:52;15.10;99.90
45619;DHT22;31343;47.520;19.144;2023-08-08T00:47:18;15.10;99.90
45619;DHT22;31343;47.520;19.144;2023-08-08T00:49:43;15.10;99.90
45619;DHT22;31343;47.520;19.144;2023-08-08T00:52:12;15.00;99.90
45619;DHT22;31343;47.520;19.144;2023-08-08T00:54:38;15.00;99.90
45619;DHT22;31343;47.520;19.144;2023-08-08T00:57:05;15.00;99.90
45619;DHT22;31343;47.520;19.144;2023-08-08T00:59:31;15.00;99.90
45619;DHT22;31343;47.520;19.144;2023-08-08T01:01:58;15.00;99.90
45619;DHT22;31343;47.520;19.144;2023-08-08T01:04:26;15.00;99.90
45619;DHT22;31343;47.520;19.144;2023-08-08T01:07:03;14.90;99.90
45619;DHT22;31343;47.520;19.144;2023-08-08T01:09:37;14.90;99.90
45619;DHT22;31343;47.520;19.144;2023-08-08T01:12:06;15.00;99.90
45619;DHT22;31343;47.520;19.144;2023-08-08T01:14:34;14.90;99.90
45619;DHT22;31343;47.520;19.144;2023-08-08T01:17:01;14.90;99.90
45619;DHT22;31343;47.520;19.144;2023-08-08T01:19:29;14.90;99.90
45619;DHT22;31343;47.520;19.144;2023-08-08T01:21:58;14.90;99.90
45619;DHT22;31343;47.520;19.144;2023-08-08T01:24:27;14.90;99.90
45619;DHT22;31343;47.520;19.144;2023-08-08T01:26:55;14.90;99.90
45619;DHT22;31343;47.520;19.144;2023-08-08T01:29:21;14.80;99.90
45619;DHT22;31343;47.520;19.144;2023-08-08T01:31:47;14.80;99.90
45619;DHT22;31343;47.520;19.144;2023-08-08T01:34:13;14.80;99.90
45619;DHT22;31343;47.520;19.144;2023-08-08T01:36:52;14.70;99.90
45619;DHT22;31343;47.520;19.144;2023-08-08T01:39:25;14.80;99.90
45619;DHT22;31343;47.520;19.144;2023-08-08T01:41:53;14.70;99.90
45619;DHT22;31343;47.520;19.144;2023-08-08T01:44:20;14.70;99.90
45619;DHT22;31343;47.520;19.144;2023-08-08T01:46:46;14.60;99.90
45619;DHT22;31343;47.520;19.144;2023-08-08T01:49:12;14.60;99.90
45619;DHT22;31343;47.520;19.144;2023-08-08T01:51:38;14.60;99.90
45619;DHT22;31343;47.520;19.144;2023-08-08T01:54:04;14.60;99.90
45619;DHT22;31343;47.520;19.144;2023-08-08T01:56:30;14.60;99.90
45619;DHT22;31343;47.520;19.144;2023-08-08T01:58:55;14.50;99.90
45619;DHT22;31343;47.520;19.144;2023-08-08T02:01:22;14.60;99.90
45619;DHT22;31343;47.520;19.144;2023-08-08T02:03:47;14.60;99.90
45619;DHT22;31343;47.520;19.144;2023-08-08T02:06:13;14.60;99.90
45619;DHT22;31343;47.520;19.144;2023-08-08T02:08:39;14.60;99.90
45619;DHT22;31343;47.520;19.144;2023-08-08T02:11:04;14.60;99.90
45619;DHT22;31343;47.520;19.144;2023-08-08T02:13:30;14.60;99.90
45619;DHT22;31343;47.520;19.144;2023-08-08T02:15:56;14.60;99.90
45619;DHT22;31343;47.520;19.144;2023-08-08T02:18:22;14.70;99.90
45619;DHT22;31343;47.520;19.144;2023-08-08T02:20:47;14.60;99.90
45619;DHT22;31343;47.520;19.144;2023-08-08T02:23:13;14.60;99.90
45619;DHT22;31343;47.520;19.144;2023-08-08T02:25:39;14.60;99.90
45619;DHT22;31343;47.520;19.144;2023-08-08T02:28:06;14.60;99.90
45619;DHT22;31343;47.520;19.144;2023-08-08T02:30:31;14.50;99.90
45619;DHT22;31343;47.520;19.144;2023-08-08T02:32:57;14.50;99.90
45619;DHT22;31343;47.520;19.144;2023-08-08T02:35:23;14.50;99.90
45619;DHT22;31343;47.520;19.144;2023-08-08T02:37:49;14.50;99.90
45619;DHT22;31343;47.520;19.144;2023-08-08T02:40:14;14.50;99.90
45619;DHT22;31343;47.520;19.144;2023-08-08T02:42:40;14.50;99.90
45619;DHT22;31343;47.520;19.144;2023-08-08T02:45:06;14.50;99.90
45619;DHT22;31343;47.520;19.144;2023-08-08T02:47:32;14.50;99.90
45619;DHT22;31343;47.520;19.144;2023-08-08T02:49:58;14.50;99.90
45619;DHT22;31343;47.520;19.144;2023-08-08T02:52:23;14.40;99.90
45619;DHT22;31343;47.520;19.144;2023-08-08T02:54:49;14.40;99.90
45619;DHT22;31343;47.520;19.144;2023-08-08T02:57:16;14.40;99.90
45619;DHT22;31343;47.520;19.144;2023-08-08T02:59:41;14.40;99.90
45619;DHT22;31343;47.520;19.144;2023-08-08T03:02:07;14.30;99.90
45619;DHT22;31343;47.520;19.144;2023-08-08T03:04:33;14.30;99.90
45619;DHT22;31343;47.520;19.144;2023-08-08T03:06:59;14.40;99.90
45619;DHT22;31343;47.520;19.144;2023-08-08T03:09:27;14.30;99.90
45619;DHT22;31343;47.520;19.144;2023-08-08T03:11:52;14.30;99.90
45619;DHT22;31343;47.520;19.144;2023-08-08T03:14:18;14.30;99.90
45619;DHT22;31343;47.520;19.144;2023-08-08T03:16:44;14.30;99.90
45619;DHT22;31343;47.520;19.144;2023-08-08T03:19:10;14.20;99.90
45619;DHT22;31343;47.520;19.144;2023-08-08T03:21:35;14.20;99.90
45619;DHT22;31343;47.520;19.144;2023-08-08T03:24:01;14.20;99.90
45619;DHT22;31343;47.520;19.144;2023-08-08T03:26:27;14.20;99.90
45619;DHT22;31343;47.520;19.144;2023-08-08T03:28:53;14.20;99.90
45619;DHT22;31343;47.520;19.144;2023-08-08T03:31:20;14.20;99.90
45619;DHT22;31343;47.520;19.144;2023-08-08T03:33:46;14.20;99.90
45619;DHT22;31343;47.520;19.144;2023-08-08T03:36:11;14.20;99.90
45619;DHT22;31343;47.520;19.144;2023-08-08T03:38:37;14.30;99.90
45619;DHT22;31343;47.520;19.144;2023-08-08T03:41:05;14.30;99.90
45619;DHT22;31343;47.520;19.144;2023-08-08T03:43:31;14.30;99.90
45619;DHT22;31343;47.520;19.144;2023-08-08T03:45:57;14.40;99.90
45619;DHT22;31343;47.520;19.144;2023-08-08T03:48:22;14.40;99.90
45619;DHT22;31343;47.520;19.144;2023-08-08T03:50:48;14.40;99.90
45619;DHT22;31343;47.520;19.144;2023-08-08T03:53:14;14.40;99.90
45619;DHT22;31343;47.520;19.144;2023-08-08T03:55:40;14.40;99.90
45619;DHT22;31343;47.520;19.144;2023-08-08T03:58:05;14.40;99.90
45619;DHT22;31343;47.520;19.144;2023-08-08T04:00:31;14.40;99.90
45619;DHT22;31343;47.520;19.144;2023-08-08T04:02:57;14.40;99.90
45619;DHT22;31343;47.520;19.144;2023-08-08T04:05:23;14.40;99.90
45619;DHT22;31343;47.520;19.144;2023-08-08T04:07:49;14.40;99.90
45619;DHT22;31343;47.520;19.144;2023-08-08T04:10:15;14.40;99.90
45619;DHT22;31343;47.520;19.144;2023-08-08T04:12:41;14.40;99.90
45619;DHT22;31343;47.520;19.144;2023-08-08T04:15:07;14.40;99.90
45619;DHT22;31343;47.520;19.144;2023-08-08T04:17:33;14.50;99.90
45619;DHT22;31343;47.520;19.144;2023-08-08T04:19:59;14.40;99.90
45619;DHT22;31343;47.520;19.144;2023-08-08T04:22:24;14.50;99.90
45619;DHT22;31343;47.520;19.144;2023-08-08T04:24:50;14.60;99.90
45619;DHT22;31343;47.520;19.144;2023-08-08T04:27:16;14.70;99.90
45619;DHT22;31343;47.520;19.144;2023-08-08T04:29:42;14.70;99.90
45619;DHT22;31343;47.520;19.144;2023-08-08T04:32:07;14.70;99.90
45619;DHT22;31343;47.520;19.144;2023-08-08T04:34:33;14.80;99.90
45619;DHT22;31343;47.520;19.144;2023-08-08T04:36:59;14.90;99.90
45619;DHT22;31343;47.520;19.144;2023-08-08T04:39:24;15.00;99.90
45619;DHT22;31343;47.520;19.144;2023-08-08T04:41:50;15.00;99.90
45619;DHT22;31343;47.520;19.144;2023-08-08T04:44:16;15.00;99.90
45619;DHT22;31343;47.520;19.144;2023-08-08T04:46:41;15.10;99.90
45619;DHT22;31343;47.520;19.144;2023-08-08T04:49:07;15.10;99.90
45619;DHT22;31343;47.520;19.144;2023-08-08T04:51:33;15.30;99.90
45619;DHT22;31343;47.520;19.144;2023-08-08T04:53:59;15.30;99.90
45619;DHT22;31343;47.520;19.144;2023-08-08T04:56:24;15.30;99.90
45619;DHT22;31343;47.520;19.144;2023-08-08T04:58:50;15.40;99.90
45619;DHT22;31343;47.520;19.144;2023-08-08T05:01:16;15.50;99.90
45619;DHT22;31343;47.520;19.144;2023-08-08T05:03:43;15.70;99.90
45619;DHT22;31343;47.520;19.144;2023-08-08T05:06:09;16.00;99.90
45619;DHT22;31343;47.520;19.144;2023-08-08T05:08:35;16.60;99.90
45619;DHT22;31343;47.520;19.144;2023-08-08T05:11:00;17.50;99.90
45619;DHT22;31343;47.520;19.144;2023-08-08T05:13:26;18.70;99.90
45619;DHT22;31343;47.520;19.144;2023-08-08T05:15:52;19.90;99.90
45619;DHT22;31343;47.520;19.144;2023-08-08T05:18:18;20.70;99.90
45619;DHT22;31343;47.520;19.144;2023-08-08T05:20:44;21.30;99.70
45619;DHT22;31343;47.520;19.144;2023-08-08T05:23:10;21.90;98.10
45619;DHT22;31343;47.520;19.144;2023-08-08T05:25:36;22.70;96.60
45619;DHT22;31343;47.520;19.144;2023-08-08T05:28:01;23.20;95.30
45619;DHT22;31343;47.520;19.144;2023-08-08T05:30:28;23.70;94.20
45619;DHT22;31343;47.520;19.144;2023-08-08T05:32:53;24.00;93.50
45619;DHT22;31343;47.520;19.144;2023-08-08T05:35:19;24.70;92.70
45619;DHT22;31343;47.520;19.144;2023-08-08T05:37:45;24.80;91.40
45619;DHT22;31343;47.520;19.144;2023-08-08T05:40:11;24.60;91.30
45619;DHT22;31343;47.520;19.144;2023-08-08T05:42:38;24.70;91.30
45619;DHT22;31343;47.520;19.144;2023-08-08T05:45:04;25.60;90.80
45619;DHT22;31343;47.520;19.144;2023-08-08T05:47:30;25.80;90.10
45619;DHT22;31343;47.520;19.144;2023-08-08T05:49:55;25.80;88.80
45619;DHT22;31343;47.520;19.144;2023-08-08T05:52:21;25.10;90.10
45619;DHT22;31343;47.520;19.144;2023-08-08T05:54:47;25.60;88.60
45619;DHT22;31343;47.520;19.144;2023-08-08T05:57:13;26.20;88.70
45619;DHT22;31343;47.520;19.144;2023-08-08T05:59:39;27.00;86.90
45619;DHT22;31343;47.520;19.144;2023-08-08T06:02:05;27.70;84.60
45619;DHT22;31343;47.520;19.144;2023-08-08T06:04:31;27.50;82.30
45619;DHT22;31343;47.520;19.144;2023-08-08T06:06:57;27.70;83.40
45619;DHT22;31343;47.520;19.144;2023-08-08T06:09:22;27.00;81.30
45619;DHT22;31343;47.520;19.144;2023-08-08T06:11:48;26.70;83.20
45619;DHT22;31343;47.520;19.144;2023-08-08T06:14:14;27.10;83.30
45619;DHT22;31343;47.520;19.144;2023-08-08T06:16:40;27.80;82.50
45619;DHT22;31343;47.520;19.144;2023-08-08T06:19:06;27.60;80.00
45619;DHT22;31343;47.520;19.144;2023-08-08T06:21:32;28.60;80.50
45619;DHT22;31343;47.520;19.144;2023-08-08T06:23:58;28.30;78.10
45619;DHT22;31343;47.520;19.144;2023-08-08T06:26:24;28.30;78.20
45619;DHT22;31343;47.520;19.144;2023-08-08T06:28:49;28.80;78.10
45619;DHT22;31343;47.520;19.144;2023-08-08T06:31:17;28.60;77.70
45619;DHT22;31343;47.520;19.144;2023-08-08T06:33:44;27.70;78.50
45619;DHT22;31343;47.520;19.144;2023-08-08T06:36:09;28.10;77.70
45619;DHT22;31343;47.520;19.144;2023-08-08T06:38:35;27.70;77.70
45619;DHT22;31343;47.520;19.144;2023-08-08T06:41:02;28.30;76.70
45619;DHT22;31343;47.520;19.144;2023-08-08T06:43:29;29.10;76.60
45619;DHT22;31343;47.520;19.144;2023-08-08T06:45:55;29.70;74.20
45619;DHT22;31343;47.520;19.144;2023-08-08T06:48:21;29.20;75.10
45619;DHT22;31343;47.520;19.144;2023-08-08T06:50:47;28.90;73.60
45619;DHT22;31343;47.520;19.144;2023-08-08T06:53:13;29.30;74.60
45619;DHT22;31343;47.520;19.144;2023-08-08T06:55:38;29.10;73.00
45619;DHT22;31343;47.520;19.144;2023-08-08T06:58:05;29.40;73.30
45619;DHT22;31343;47.520;19.144;2023-08-08T07:00:31;29.90;72.90
45619;DHT22;31343;47.520;19.144;2023-08-08T07:02:57;29.40;72.90
45619;DHT22;31343;47.520;19.144;2023-08-08T07:05:22;29.30;73.40
45619;DHT22;31343;47.520;19.144;2023-08-08T07:07:52;29.20;73.20
45619;DHT22;31343;47.520;19.144;2023-08-08T07:10:18;29.40;73.60
45619;DHT22;31343;47.520;19.144;2023-08-08T07:12:44;29.50;72.90
45619;DHT22;31343;47.520;19.144;2023-08-08T07:15:10;29.80;72.40
45619;DHT22;31343;47.520;19.144;2023-08-08T07:17:36;29.50;72.20
45619;DHT22;31343;47.520;19.144;2023-08-08T07:20:02;29.60;72.30
45619;DHT22;31343;47.520;19.144;2023-08-08T07:22:28;29.40;71.60
45619;DHT22;31343;47.520;19.144;2023-08-08T07:24:54;27.80;72.20
45619;DHT22;31343;47.520;19.144;2023-08-08T07:27:20;27.50;73.00
45619;DHT22;31343;47.520;19.144;2023-08-08T07:29:47;27.80;75.30
45619;DHT22;31343;47.520;19.144;2023-08-08T07:32:13;28.20;74.20
45619;DHT22;31343;47.520;19.144;2023-08-08T07:34:38;27.70;74.20
45619;DHT22;31343;47.520;19.144;2023-08-08T07:37:05;27.70;75.60
45619;DHT22;31343;47.520;19.144;2023-08-08T07:39:30;27.50;75.60
45619;DHT22;31343;47.520;19.144;2023-08-08T07:41:56;27.30;75.20
45619;DHT22;31343;47.520;19.144;2023-08-08T07:44:23;26.60;77.20
45619;DHT22;31343;47.520;19.144;2023-08-08T07:46:48;26.40;78.80
45619;DHT22;31343;47.520;19.144;2023-08-08T07:49:14;26.30;77.10
45619;DHT22;31343;47.520;19.144;2023-08-08T07:51:40;25.80;78.10
45619;DHT22;31343;47.520;19.144;2023-08-08T07:54:06;25.20;79.60
45619;DHT22;31343;47.520;19.144;2023-08-08T07:56:35;25.10;79.40
45619;DHT22;31343;47.520;19.144;2023-08-08T07:59:01;25.10;80.10
45619;DHT22;31343;47.520;19.144;2023-08-08T08:01:27;24.60;82.00
45619;DHT22;31343;47.520;19.144;2023-08-08T08:03:53;25.00;81.50
45619;DHT22;31343;47.520;19.144;2023-08-08T08:06:19;25.10;81.70
45619;DHT22;31343;47.520;19.144;2023-08-08T08:08:45;25.50;81.00
45619;DHT22;31343;47.520;19.144;2023-08-08T08:11:10;26.10;79.90
45619;DHT22;31343;47.520;19.144;2023-08-08T08:13:38;25.20;76.80
45619;DHT22;31343;47.520;19.144;2023-08-08T08:16:04;25.20;79.40
45619;DHT22;31343;47.520;19.144;2023-08-08T08:18:30;25.70;80.80
45619;DHT22;31343;47.520;19.144;2023-08-08T08:20:56;25.50;79.40
45619;DHT22;31343;47.520;19.144;2023-08-08T08:23:22;25.80;79.20
45619;DHT22;31343;47.520;19.144;2023-08-08T08:25:47;26.20;77.30
45619;DHT22;31343;47.520;19.144;2023-08-08T08:28:14;26.20;77.30
45619;DHT22;31343;47.520;19.144;2023-08-08T08:30:40;26.20;78.30
45619;DHT22;31343;47.520;19.144;2023-08-08T08:33:06;26.40;76.30
45619;DHT22;31343;47.520;19.144;2023-08-08T08:35:34;26.40;75.70
45619;DHT22;31343;47.520;19.144;2023-08-08T08:38:00;26.10;75.60
45619;DHT22;31343;47.520;19.144;2023-08-08T08:40:27;26.10;77.70
45619;DHT22;31343;47.520;19.144;2023-08-08T08:42:54;26.00;76.20
45619;DHT22;31343;47.520;19.144;2023-08-08T08:45:20;26.20;75.60
45619;DHT22;31343;47.520;19.144;2023-08-08T08:47:49;26.50;76.80
45619;DHT22;31343;47.520;19.144;2023-08-08T08:50:18;26.00;76.70
45619;DHT22;31343;47.520;19.144;2023-08-08T08:52:44;26.20;76.80
45619;DHT22;31343;47.520;19.144;2023-08-08T08:55:10;26.20;77.40
45619;DHT22;31343;47.520;19.144;2023-08-08T08:57:36;26.00;77.10
45619;DHT22;31343;47.520;19.144;2023-08-08T09:00:03;26.20;78.30
45619;DHT22;31343;47.520;19.144;2023-08-08T09:02:31;26.00;77.70
45619;DHT22;31343;47.520;19.144;2023-08-08T09:04:58;24.90;75.90
45619;DHT22;31343;47.520;19.144;2023-08-08T09:07:28;24.20;79.40
45619;DHT22;31343;47.520;19.144;2023-08-08T09:09:55;24.20;80.10
45619;DHT22;31343;47.520;19.144;2023-08-08T09:12:21;24.30;81.00
45619;DHT22;31343;47.520;19.144;2023-08-08T09:14:55;24.10;79.80
45619;DHT22;31343;47.520;19.144;2023-08-08T09:17:21;23.90;81.80
45619;DHT22;31343;47.520;19.144;2023-08-08T09:19:50;23.80;80.70
45619;DHT22;31343;47.520;19.144;2023-08-08T09:22:15;23.90;81.70
45619;DHT22;31343;47.520;19.144;2023-08-08T09:24:41;24.10;80.80
45619;DHT22;31343;47.520;19.144;2023-08-08T09:27:08;23.90;81.40
45619;DHT22;31343;47.520;19.144;2023-08-08T09:29:35;24.10;80.90
45619;DHT22;31343;47.520;19.144;2023-08-08T09:32:08;23.80;81.50
45619;DHT22;31343;47.520;19.144;2023-08-08T09:34:34;23.80;82.20
45619;DHT22;31343;47.520;19.144;2023-08-08T09:37:00;24.10;81.20
45619;DHT22;31343;47.520;19.144;2023-08-08T09:39:27;24.00;80.90
45619;DHT22;31343;47.520;19.144;2023-08-08T09:41:53;23.90;81.80
45619;DHT22;31343;47.520;19.144;2023-08-08T09:44:23;24.00;82.00
45619;DHT22;31343;47.520;19.144;2023-08-08T09:46:50;23.80;78.30
45619;DHT22;31343;47.520;19.144;2023-08-08T09:49:16;23.30;78.90
45619;DHT22;31343;47.520;19.144;2023-08-08T09:51:43;23.50;80.20
45619;DHT22;31343;47.520;19.144;2023-08-08T09:54:09;23.80;80.70
45619;DHT22;31343;47.520;19.144;2023-08-08T09:56:36;23.50;80.80
45619;DHT22;31343;47.520;19.144;2023-08-08T09:59:02;23.70;80.70
45619;DHT22;31343;47.520;19.144;2023-08-08T10:01:29;23.50;82.30
45619;DHT22;31343;47.520;19.144;2023-08-08T10:03:56;23.60;83.90
45619;DHT22;31343;47.520;19.144;2023-08-08T10:06:23;24.00;84.10
45619;DHT22;31343;47.520;19.144;2023-08-08T10:08:50;24.20;82.50
45619;DHT22;31343;47.520;19.144;2023-08-08T10:11:15;24.00;80.40
45619;DHT22;31343;47.520;19.144;2023-08-08T10:13:53;23.70;77.60
45619;DHT22;31343;47.520;19.144;2023-08-08T10:16:19;23.60;79.90
45619;DHT22;31343;47.520;19.144;2023-08-08T10:19:02;23.40;80.90
45619;DHT22;31343;47.520;19.144;2023-08-08T10:21:33;23.40;80.40
45619;DHT22;31343;47.520;19.144;2023-08-08T10:24:07;23.60;80.10
45619;DHT22;31343;47.520;19.144;2023-08-08T10:26:33;23.70;81.70
45619;DHT22;31343;47.520;19.144;2023-08-08T10:29:00;24.00;79.80
45619;DHT22;31343;47.520;19.144;2023-08-08T10:31:26;23.90;80.60
45619;DHT22;31343;47.520;19.144;2023-08-08T10:34:03;24.20;82.20
45619;DHT22;31343;47.520;19.144;2023-08-08T10:36:49;24.10;79.90
45619;DHT22;31343;47.520;19.144;2023-08-08T10:39:19;24.00;78.30
45619;DHT22;31343;47.520;19.144;2023-08-08T10:41:50;23.80;79.20
45619;DHT22;31343;47.520;19.144;2023-08-08T10:44:23;23.80;81.60
45619;DHT22;31343;47.520;19.144;2023-08-08T10:46:51;24.20;82.10
45619;DHT22;31343;47.520;19.144;2023-08-08T10:49:17;24.40;78.50
45619;DHT22;31343;47.520;19.144;2023-08-08T10:51:44;24.50;79.60
45619;DHT22;31343;47.520;19.144;2023-08-08T10:56:54;24.70;77.00
45619;DHT22;31343;47.520;19.144;2023-08-08T10:59:28;24.30;77.20
45619;DHT22;31343;47.520;19.144;2023-08-08T11:02:01;24.70;78.40
45619;DHT22;31343;47.520;19.144;2023-08-08T11:04:27;25.20;76.30
45619;DHT22;31343;47.520;19.144;2023-08-08T11:06:55;25.50;72.70
45619;DHT22;31343;47.520;19.144;2023-08-08T11:09:22;25.70;75.90
45619;DHT22;31343;47.520;19.144;2023-08-08T11:11:48;26.40;72.50
45619;DHT22;31343;47.520;19.144;2023-08-08T11:14:16;26.70;73.10
45619;DHT22;31343;47.520;19.144;2023-08-08T11:16:43;26.90;71.60
45619;DHT22;31343;47.520;19.144;2023-08-08T11:19:09;27.20;72.60
45619;DHT22;31343;47.520;19.144;2023-08-08T11:21:41;28.20;73.30
45619;DHT22;31343;47.520;19.144;2023-08-08T11:24:08;28.70;67.80
45619;DHT22;31343;47.520;19.144;2023-08-08T11:26:34;28.80;70.00
45619;DHT22;31343;47.520;19.144;2023-08-08T11:29:01;29.00;69.60
45619;DHT22;31343;47.520;19.144;2023-08-08T11:31:27;29.00;69.10
45619;DHT22;31343;47.520;19.144;2023-08-08T11:33:54;29.30;67.50
45619;DHT22;31343;47.520;19.144;2023-08-08T11:36:21;29.40;68.70
45619;DHT22;31343;47.520;19.144;2023-08-08T11:38:50;29.90;67.90
45619;DHT22;31343;47.520;19.144;2023-08-08T11:41:18;30.20;65.90
45619;DHT22;31343;47.520;19.144;2023-08-08T11:43:45;29.60;64.00
45619;DHT22;31343;47.520;19.144;2023-08-08T11:46:14;29.50;67.10
45619;DHT22;31343;47.520;19.144;2023-08-08T11:48:41;29.50;66.70
45619;DHT22;31343;47.520;19.144;2023-08-08T11:51:08;28.90;66.60
45619;DHT22;31343;47.520;19.144;2023-08-08T11:53:35;29.40;68.10
45619;DHT22;31343;47.520;19.144;2023-08-08T11:56:01;29.80;66.80
45619;DHT22;31343;47.520;19.144;2023-08-08T11:58:29;29.90;66.80
45619;DHT22;31343;47.520;19.144;2023-08-08T12:00:58;29.40;65.40
45619;DHT22;31343;47.520;19.144;2023-08-08T12:03:25;29.30;65.10
45619;DHT22;31343;47.520;19.144;2023-08-08T12:05:51;29.70;67.00
45619;DHT22;31343;47.520;19.144;2023-08-08T12:08:18;30.20;65.40
45619;DHT22;31343;47.520;19.144;2023-08-08T12:10:51;29.90;62.80
45619;DHT22;31343;47.520;19.144;2023-08-08T12:13:23;29.40;64.10
45619;DHT22;31343;47.520;19.144;2023-08-08T12:15:52;29.80;64.90
45619;DHT22;31343;47.520;19.144;2023-08-08T12:18:19;30.20;65.50
45619;DHT22;31343;47.520;19.144;2023-08-08T12:20:46;30.30;64.10
45619;DHT22;31343;47.520;19.144;2023-08-08T12:23:12;29.80;62.40
45619;DHT22;31343;47.520;19.144;2023-08-08T12:25:39;28.40;65.20
45619;DHT22;31343;47.520;19.144;2023-08-08T12:28:05;28.30;67.00
45619;DHT22;31343;47.520;19.144;2023-08-08T12:30:31;28.70;65.20
45619;DHT22;31343;47.520;19.144;2023-08-08T12:32:57;29.20;65.70
45619;DHT22;31343;47.520;19.144;2023-08-08T12:35:23;30.10;65.10
45619;DHT22;31343;47.520;19.144;2023-08-08T12:37:52;30.30;62.90
45619;DHT22;31343;47.520;19.144;2023-08-08T12:40:18;30.90;61.40
45619;DHT22;31343;47.520;19.144;2023-08-08T12:42:43;31.00;60.30
45619;DHT22;31343;47.520;19.144;2023-08-08T12:45:09;31.40;59.60
45619;DHT22;31343;47.520;19.144;2023-08-08T12:47:36;30.60;59.10
45619;DHT22;31343;47.520;19.144;2023-08-08T12:50:06;29.60;59.60
45619;DHT22;31343;47.520;19.144;2023-08-08T12:52:33;29.20;59.60
45619;DHT22;31343;47.520;19.144;2023-08-08T12:54:59;28.80;61.60
45619;DHT22;31343;47.520;19.144;2023-08-08T12:57:25;28.40;63.10
45619;DHT22;31343;47.520;19.144;2023-08-08T12:59:51;28.30;64.10
45619;DHT22;31343;47.520;19.144;2023-08-08T13:02:17;28.00;63.50
45619;DHT22;31343;47.520;19.144;2023-08-08T13:04:42;27.60;64.70
45619;DHT22;31343;47.520;19.144;2023-08-08T13:07:09;27.40;65.50
45619;DHT22;31343;47.520;19.144;2023-08-08T13:09:34;26.70;66.80
45619;DHT22;31343;47.520;19.144;2023-08-08T13:12:00;26.40;65.60
45619;DHT22;31343;47.520;19.144;2023-08-08T13:14:26;26.00;67.40
45619;DHT22;31343;47.520;19.144;2023-08-08T13:16:52;25.80;67.80
45619;DHT22;31343;47.520;19.144;2023-08-08T13:19:19;25.40;68.10
45619;DHT22;31343;47.520;19.144;2023-08-08T13:21:47;25.30;68.90
45619;DHT22;31343;47.520;19.144;2023-08-08T13:24:12;24.90;70.10
45619;DHT22;31343;47.520;19.144;2023-08-08T13:26:41;25.00;70.60
45619;DHT22;31343;47.520;19.144;2023-08-08T13:29:07;24.70;70.70
45619;DHT22;31343;47.520;19.144;2023-08-08T13:31:34;24.50;71.40
45619;DHT22;31343;47.520;19.144;2023-08-08T13:33:59;24.30;71.90
45619;DHT22;31343;47.520;19.144;2023-08-08T13:36:25;24.10;72.10
45619;DHT22;31343;47.520;19.144;2023-08-08T13:38:51;23.80;73.80
45619;DHT22;31343;47.520;19.144;2023-08-08T13:41:17;23.40;74.10
45619;DHT22;31343;47.520;19.144;2023-08-08T13:43:43;23.20;74.70
45619;DHT22;31343;47.520;19.144;2023-08-08T13:46:09;23.00;75.80
45619;DHT22;31343;47.520;19.144;2023-08-08T13:48:36;22.70;75.90
45619;DHT22;31343;47.520;19.144;2023-08-08T13:51:03;22.60;77.00
45619;DHT22;31343;47.520;19.144;2023-08-08T13:53:29;22.50;77.00
45619;DHT22;31343;47.520;19.144;2023-08-08T13:55:55;22.40;75.90
45619;DHT22;31343;47.520;19.144;2023-08-08T13:58:20;22.10;76.30
45619;DHT22;31343;47.520;19.144;2023-08-08T14:00:49;22.00;77.60
45619;DHT22;31343;47.520;19.144;2023-08-08T14:03:15;22.00;78.30
45619;DHT22;31343;47.520;19.144;2023-08-08T14:05:41;21.90;79.70
45619;DHT22;31343;47.520;19.144;2023-08-08T14:08:07;22.00;80.00
45619;DHT22;31343;47.520;19.144;2023-08-08T14:10:33;21.90;79.90
45619;DHT22;31343;47.520;19.144;2023-08-08T14:12:59;21.90;80.40
45619;DHT22;31343;47.520;19.144;2023-08-08T14:15:25;21.90;81.10
45619;DHT22;31343;47.520;19.144;2023-08-08T14:17:50;21.80;80.50
45619;DHT22;31343;47.520;19.144;2023-08-08T14:20:16;21.90;80.80
45619;DHT22;31343;47.520;19.144;2023-08-08T14:22:44;21.80;80.00
45619;DHT22;31343;47.520;19.144;2023-08-08T14:25:11;21.70;81.10
45619;DHT22;31343;47.520;19.144;2023-08-08T14:27:37;21.60;82.20
45619;DHT22;31343;47.520;19.144;2023-08-08T14:30:03;21.70;81.70
45619;DHT22;31343;47.520;19.144;2023-08-08T14:32:29;21.70;83.30
45619;DHT22;31343;47.520;19.144;2023-08-08T14:34:55;21.70;82.90
45619;DHT22;31343;47.520;19.144;2023-08-08T14:37:21;21.60;83.90
45619;DHT22;31343;47.520;19.144;2023-08-08T14:39:47;21.70;84.20
45619;DHT22;31343;47.520;19.144;2023-08-08T14:42:13;21.70;82.70
45619;DHT22;31343;47.520;19.144;2023-08-08T14:44:39;21.70;82.90
45619;DHT22;31343;47.520;19.144;2023-08-08T14:47:05;21.70;81.70
45619;DHT22;31343;47.520;19.144;2023-08-08T14:49:31;21.80;82.80
45619;DHT22;31343;47.520;19.144;2023-08-08T14:51:56;21.90;82.90
45619;DHT22;31343;47.520;19.144;2023-08-08T14:54:22;22.10;83.20
45619;DHT22;31343;47.520;19.144;2023-08-08T14:56:48;22.10;82.40
45619;DHT22;31343;47.520;19.144;2023-08-08T14:59:14;22.30;82.40
45619;DHT22;31343;47.520;19.144;2023-08-08T15:01:39;22.20;82.10
45619;DHT22;31343;47.520;19.144;2023-08-08T15:04:05;22.40;81.70
45619;DHT22;31343;47.520;19.144;2023-08-08T15:06:31;22.50;81.10
45619;DHT22;31343;47.520;19.144;2023-08-08T15:08:57;22.60;81.20
45619;DHT22;31343;47.520;19.144;2023-08-08T15:11:23;22.70;80.30
45619;DHT22;31343;47.520;19.144;2023-08-08T15:13:49;22.70;80.40